Time;durP1;ratioP1;P1;durP2;ratioP2;P2;SDS_P1;SDS_P2;PMS_P1;PMS_P2;Temp;Humidity;BMP_temperature;BMP_pressure;BME280_temperature;BME280_humidity;BME280_pressure;Samples;Min_cycle;Max_cycle;Signal;HPM_P1;HPM_P2
2022/02/28 00:02:06;;;;;;;6.30;3.25;;;;;;;8.25;53.92;101299.68;1766868;80;21109;-63
2022/02/28 00:04:33;;;;;;;4.97;2.92;;;;;;;8.16;53.90;101302.33;1771351;80;20983;-63
2022/02/28 00:07:00;;;;;;;6.83;3.50;;;;;;;8.19;53.99;101300.75;1768838;80;21134;-61
2022/02/28 00:09:27;;;;;;;5.47;2.92;;;;;;;8.33;53.71;101293.77;1764646;80;21116;-73
2022/02/28 00:11:54;;;;;;;6.12;3.47;;;;;;;8.35;53.58;101299.66;1768338;80;21145;-65
2022/02/28 00:14:21;;;;;;;5.40;3.17;;;;;;;8.43;53.34;101299.79;1769572;80;21006;-62
2022/02/28 00:16:49;;;;;;;6.22;3.05;;;;;;;8.37;53.23;101298.20;1760412;80;20952;-63
2022/02/28 00:19:18;;;;;;;5.83;2.98;;;;;;;8.20;53.53;101296.70;1761217;80;21004;-65
2022/02/28 00:21:47;;;;;;;6.00;3.37;;;;;;;8.24;53.42;101299.83;1770179;80;20991;-61
2022/02/28 00:24:15;;;;;;;6.20;3.47;;;;;;;8.27;53.35;101295.17;1770207;80;21169;-63
2022/02/28 00:26:41;;;;;;;5.40;3.17;;;;;;;8.35;53.41;101285.37;1769325;80;20913;-62
2022/02/28 00:29:09;;;;;;;5.28;3.08;;;;;;;8.46;53.08;101285.70;1767976;80;21301;-62
2022/02/28 00:31:36;;;;;;;9.15;4.33;;;;;;;8.38;53.14;101289.02;1772054;80;21098;-61
2022/02/28 00:34:05;;;;;;;7.33;3.37;;;;;;;8.41;53.23;101287.89;1770720;80;21066;-62
2022/02/28 00:36:32;;;;;;;6.15;3.35;;;;;;;8.51;52.80;101284.30;1764002;80;21124;-67
2022/02/28 00:38:59;;;;;;;5.12;2.83;;;;;;;8.63;52.35;101291.90;1763962;80;21019;-61
2022/02/28 00:41:27;;;;;;;5.83;3.30;;;;;;;8.58;52.40;101287.63;1768345;80;20979;-74
2022/02/28 00:43:53;;;;;;;5.28;3.40;;;;;;;8.48;52.55;101289.77;1772487;80;20979;-61
2022/02/28 00:46:20;;;;;;;6.37;3.30;;;;;;;8.45;52.68;101291.38;1769802;80;21027;-62
2022/02/28 00:48:47;;;;;;;5.78;3.58;;;;;;;8.21;52.99;101300.11;1768207;80;21147;-73
2022/02/28 00:51:13;;;;;;;6.60;3.80;;;;;;;8.46;52.90;101292.20;1761999;80;20980;-73
2022/02/28 00:53:40;;;;;;;6.00;3.27;;;;;;;8.16;53.06;101291.45;1770411;80;21038;-61
2022/02/28 00:56:07;;;;;;;7.03;3.92;;;;;;;8.25;53.46;101292.38;1759566;80;21541;-63
2022/02/28 00:58:34;;;;;;;8.33;3.70;;;;;;;8.16;53.65;101295.34;1766810;80;21434;-62
2022/02/28 01:01:01;;;;;;;5.90;3.55;;;;;;;8.17;53.57;101292.27;1767885;80;21587;-72
2022/02/28 01:03:28;;;;;;;8.20;4.55;;;;;;;8.18;53.64;101289.55;1766728;80;22525;-68
2022/02/28 01:05:55;;;;;;;7.42;4.05;;;;;;;7.88;54.58;101290.58;1768113;80;21010;-63
2022/02/28 01:08:22;;;;;;;7.75;3.77;;;;;;;8.04;54.13;101288.21;1768898;80;21093;-63
2022/02/28 01:10:50;;;;;;;5.33;3.30;;;;;;;8.61;53.38;101284.74;1766873;80;21046;-66
2022/02/28 01:13:17;;;;;;;5.75;3.65;;;;;;;8.52;52.79;101283.35;1771969;80;21234;-73
2022/02/28 01:15:45;;;;;;;8.43;4.05;;;;;;;8.75;52.18;101277.73;1767781;80;21074;-61
2022/02/28 01:18:12;;;;;;;7.05;4.12;;;;;;;8.83;51.26;101270.53;1769455;80;21086;-63
2022/02/28 01:20:39;;;;;;;6.53;3.80;;;;;;;8.58;51.79;101275.93;1769514;80;20999;-61
2022/02/28 01:23:06;;;;;;;7.78;4.08;;;;;;;8.92;51.19;101274.36;1765941;80;21145;-63
2022/02/28 01:25:33;;;;;;;6.55;3.80;;;;;;;8.80;51.45;101272.13;1764405;80;22415;-67
2022/02/28 01:27:59;;;;;;;6.15;3.60;;;;;;;8.89;51.39;101269.93;1768660;80;21770;-63
2022/02/28 01:30:26;;;;;;;6.90;3.60;;;;;;;8.22;52.48;101274.47;1773668;80;21094;-61
2022/02/28 01:32:53;;;;;;;7.90;4.17;;;;;;;8.42;52.33;101276.08;1764772;80;20971;-65
2022/02/28 01:35:21;;;;;;;6.65;3.65;;;;;;;8.63;52.02;101280.20;1717679;82;20964;-74
2022/02/28 01:37:47;;;;;;;6.72;3.47;;;;;;;8.70;51.54;101266.97;1705234;83;21525;-61
2022/02/28 01:40:15;;;;;;;6.25;3.77;;;;;;;8.87;51.27;101258.39;1768398;80;20967;-62
2022/02/28 01:42:43;;;;;;;7.33;3.87;;;;;;;8.81;51.16;101258.96;1773404;80;21477;-63
2022/02/28 01:45:16;;;;;;;6.08;3.75;;;;;;;9.03;50.79;101260.81;1771757;80;20983;-70
2022/02/28 01:47:43;;;;;;;8.73;4.20;;;;;;;8.98;50.63;101258.17;1768541;80;21149;-62
2022/02/28 01:50:10;;;;;;;8.45;4.40;;;;;;;8.97;50.51;101263.50;1772677;80;21096;-62
2022/02/28 01:52:37;;;;;;;5.90;3.58;;;;;;;8.89;50.47;101260.34;1763928;80;20999;-61
2022/02/28 01:55:07;;;;;;;8.65;4.15;;;;;;;9.18;49.97;101258.02;1753759;80;20913;-75
2022/02/28 01:57:36;;;;;;;7.03;4.03;;;;;;;9.21;49.75;101258.55;1746707;80;21074;-63
2022/02/28 02:00:07;;;;;;;7.45;3.75;;;;;;;8.96;49.88;101254.08;1767451;80;20995;-63
2022/02/28 02:02:37;;;;;;;6.47;3.72;;;;;;;9.01;49.78;101246.64;1768139;80;21224;-75
2022/02/28 02:05:06;;;;;;;6.75;3.67;;;;;;;9.13;49.79;101248.53;1753817;80;21541;-68
2022/02/28 02:07:33;;;;;;;8.08;4.17;;;;;;;8.85;50.02;101251.69;1765713;80;21054;-63
2022/02/28 02:10:03;;;;;;;6.97;3.70;;;;;;;8.68;50.61;101250.72;1746090;80;21062;-64
2022/02/28 02:12:29;;;;;;;6.55;4.08;;;;;;;8.75;50.43;101246.08;1748463;80;21052;-74
2022/02/28 02:14:56;;;;;;;6.55;3.98;;;;;;;8.71;50.50;101249.09;1745528;80;21095;-70
2022/02/28 02:17:23;;;;;;;7.08;4.20;;;;;;;8.89;50.29;101242.14;1760331;80;20996;-65
2022/02/28 02:19:53;;;;;;;9.78;4.20;;;;;;;8.73;50.44;101243.28;1767426;80;21501;-64
2022/02/28 02:22:21;;;;;;;7.20;4.62;;;;;;;8.97;49.90;101239.61;1760764;80;21042;-69
2022/02/28 02:24:49;;;;;;;6.80;3.58;;;;;;;8.95;50.00;101246.76;1759681;80;21010;-70
2022/02/28 02:27:16;;;;;;;6.10;3.60;;;;;;;8.76;50.30;101241.21;1765086;80;21104;-63
2022/02/28 02:29:42;;;;;;;6.65;3.75;;;;;;;8.92;49.92;101240.55;1762008;80;21426;-64
2022/02/28 02:32:16;;;;;;;6.97;3.98;;;;;;;9.17;49.15;101236.40;1760644;80;21489;-64
2022/02/28 02:34:43;;;;;;;6.78;4.17;;;;;;;9.23;48.88;101231.06;1761488;80;20967;-66
2022/02/28 02:37:10;;;;;;;8.00;4.25;;;;;;;9.30;48.32;101230.80;1760388;80;21572;-66
2022/02/28 02:39:42;;;;;;;7.42;3.87;;;;;;;9.15;48.35;101231.00;1756338;80;21979;-66
2022/02/28 02:42:09;;;;;;;;;;;;;;;9.10;48.18;101225.44;1764295;80;21047;-68
2022/02/28 02:44:36;;;;;;;7.60;3.58;;;;;;;8.55;48.61;101235.45;1761539;80;20105;-65
2022/02/28 02:47:04;;;;;;;6.55;3.67;;;;;;;7.93;49.47;101239.05;1763193;80;21126;-65
2022/02/28 02:49:33;;;;;;;5.33;3.20;;;;;;;7.83;50.04;101244.73;1768055;80;20968;-65
2022/02/28 02:52:00;;;;;;;8.80;4.35;;;;;;;7.75;50.27;101242.03;1755749;80;21133;-67
2022/02/28 02:54:28;;;;;;;7.15;3.90;;;;;;;7.72;50.42;101239.70;1764131;80;21439;-71
2022/02/28 02:56:57;;;;;;;7.60;3.62;;;;;;;7.73;50.33;101241.37;1759937;80;21549;-66
2022/02/28 02:59:23;;;;;;;6.85;4.45;;;;;;;7.88;50.17;101238.66;1761617;80;21004;-65
2022/02/28 03:01:50;;;;;;;8.78;4.22;;;;;;;7.73;50.42;101238.77;1760572;80;20975;-65
2022/02/28 03:04:17;;;;;;;7.30;4.40;;;;;;;7.63;50.72;101237.97;1770826;80;21152;-66
2022/02/28 03:06:44;;;;;;;8.90;5.20;;;;;;;7.58;50.86;101241.44;1768411;80;20962;-66
2022/02/28 03:09:13;;;;;;;8.98;5.08;;;;;;;7.48;50.89;101237.09;1762933;80;22493;-65
2022/02/28 03:11:42;;;;;;;8.98;5.08;;;;;;;7.44;50.95;101243.52;1775145;80;21020;-66
2022/02/28 03:14:09;;;;;;;10.20;5.35;;;;;;;7.52;50.68;101239.75;1766235;80;21031;-71
2022/02/28 03:16:37;;;;;;;8.68;4.37;;;;;;;7.66;50.40;101242.41;1768168;80;21147;-65
2022/02/28 03:19:06;;;;;;;9.15;4.92;;;;;;;7.38;50.85;101240.17;1769457;80;20994;-65
2022/02/28 03:21:36;;;;;;;9.43;5.35;;;;;;;7.66;50.68;101238.98;1767609;80;20956;-65
2022/02/28 03:24:04;;;;;;;7.42;4.17;;;;;;;7.78;50.30;101246.95;1767545;80;21533;-69
2022/02/28 03:26:31;;;;;;;7.25;4.50;;;;;;;7.73;50.29;101240.89;1768351;80;22454;-65
2022/02/28 03:28:59;;;;;;;8.48;4.40;;;;;;;7.75;50.36;101245.92;1767353;80;20995;-66
2022/02/28 03:31:26;;;;;;;7.62;4.12;;;;;;;7.45;51.10;101251.63;1769543;80;21578;-67
2022/02/28 03:33:53;;;;;;;8.23;4.65;;;;;;;7.52;51.38;101247.53;1755319;80;21048;-74
2022/02/28 03:36:20;;;;;;;10.63;5.55;;;;;;;7.09;52.43;101251.05;1766848;80;21112;-64
2022/02/28 03:38:49;;;;;;;8.78;5.08;;;;;;;7.37;52.46;101250.70;1770049;80;21470;-70
2022/02/28 03:41:15;;;;;;;7.97;4.47;;;;;;;7.52;52.33;101244.94;1764275;80;22846;-66
2022/02/28 03:43:42;;;;;;;8.78;5.28;;;;;;;7.59;52.41;101250.40;1765778;80;21026;-65
2022/02/28 03:46:13;;;;;;;8.05;4.47;;;;;;;7.82;52.13;101244.89;1772649;80;21140;-65
2022/02/28 03:48:47;;;;;;;8.68;5.35;;;;;;;7.93;51.92;101252.03;1729564;80;21078;-71
2022/02/28 03:51:22;;;;;;;8.80;5.33;;;;;;;7.94;52.16;101254.95;1718150;80;21090;-65
2022/02/28 03:53:50;;;;;;;8.73;4.78;;;;;;;8.09;52.00;101257.92;1769587;80;21896;-72
2022/02/28 03:56:17;;;;;;;7.33;4.60;;;;;;;7.66;52.89;101257.97;1765304;80;21006;-65
2022/02/28 03:58:45;;;;;;;8.45;5.53;;;;;;;7.76;52.94;101267.02;1760491;80;20999;-68
2022/02/28 04:01:12;;;;;;;8.28;4.50;;;;;;;7.88;52.65;101262.48;1741554;80;21110;-64
2022/02/28 04:03:40;;;;;;;7.25;4.45;;;;;;;8.29;51.96;101264.66;1733507;81;22236;-66
2022/02/28 04:06:08;;;;;;;6.75;4.20;;;;;;;8.50;50.80;101264.47;1729943;81;21104;-65
2022/02/28 04:08:35;;;;;;;8.53;4.25;;;;;;;8.27;50.84;101271.80;1712175;82;21079;-66
2022/02/28 04:11:02;;;;;;;6.15;3.62;;;;;;;8.06;50.81;101271.17;1717490;81;21057;-65
2022/02/28 04:13:29;;;;;;;7.33;3.85;;;;;;;8.04;50.72;101274.41;1724749;81;22034;-65
2022/02/28 04:15:56;;;;;;;6.50;3.52;;;;;;;8.40;49.66;101279.28;1725670;81;21088;-70
2022/02/28 04:18:23;;;;;;;6.90;4.05;;;;;;;7.99;50.16;101277.89;1720993;81;22308;-64
2022/02/28 04:20:57;;;;;;;6.30;3.60;;;;;;;8.10;49.94;101279.51;1721465;81;21018;-65
2022/02/28 04:23:24;;;;;;;7.03;3.92;;;;;;;7.98;49.90;101276.27;1722566;82;20993;-65
2022/02/28 04:25:51;;;;;;;6.92;3.80;;;;;;;8.16;49.53;101275.05;1724712;82;21017;-69
2022/02/28 04:28:17;;;;;;;5.50;3.40;;;;;;;8.38;48.97;101277.33;1726834;82;20991;-66
2022/02/28 04:30:44;;;;;;;6.42;3.75;;;;;;;8.52;48.55;101278.16;1704734;82;21663;-69
2022/02/28 04:33:11;;;;;;;6.65;4.17;;;;;;;8.46;48.48;101281.31;1725229;81;21411;-65
2022/02/28 04:35:37;;;;;;;7.47;4.22;;;;;;;8.53;48.23;101278.97;1731266;81;20967;-64
2022/02/28 04:38:07;;;;;;;5.97;3.83;;;;;;;8.49;48.22;101278.44;1723615;81;20919;-72
2022/02/28 04:40:34;;;;;;;7.35;4.35;;;;;;;8.53;48.33;101271.98;1719089;81;21392;-65
2022/02/28 04:43:03;;;;;;;7.45;3.87;;;;;;;8.90;47.67;101277.60;1725614;81;21152;-65
2022/02/28 04:45:31;;;;;;;6.50;3.90;;;;;;;8.92;47.36;101278.25;1728942;82;21428;-65
2022/02/28 04:47:58;;;;;;;5.90;3.92;;;;;;;8.93;47.17;101274.68;1723704;82;21094;-64
2022/02/28 04:50:43;;;;;;;8.25;4.92;;;;;;;9.04;47.04;101280.64;1716651;81;21502;-70
2022/02/28 04:53:10;;;;;;;5.83;3.90;;;;;;;8.88;47.37;101287.31;1722703;82;21053;-63
2022/02/28 04:55:36;;;;;;;7.72;4.75;;;;;;;8.81;47.29;101286.26;1723157;81;21153;-70
2022/02/28 04:58:04;;;;;;;8.90;4.42;;;;;;;8.96;47.30;101287.39;1723468;82;21037;-65
2022/02/28 05:00:39;;;;;;;6.53;4.08;;;;;;;8.81;47.29;101292.76;1727152;81;21057;-65
2022/02/28 05:03:05;;;;;;;8.33;5.58;;;;;;;8.76;47.52;101290.60;1718200;81;21105;-66
2022/02/28 05:05:34;;;;;;;7.25;4.55;;;;;;;8.96;47.12;101291.30;1716537;83;21000;-71
2022/02/28 05:08:01;;;;;;;6.12;4.10;;;;;;;8.86;47.18;101291.83;1718892;81;21140;-65
2022/02/28 05:10:28;;;;;;;6.58;3.95;;;;;;;8.83;47.16;101293.93;1716015;83;21664;-69
2022/02/28 05:12:56;;;;;;;7.25;4.37;;;;;;;8.90;47.05;101294.50;1716735;81;20984;-63
2022/02/28 05:15:23;;;;;;;7.72;4.35;;;;;;;8.98;47.10;101301.08;1715476;83;21520;-72
2022/02/28 05:17:51;;;;;;;8.53;4.83;;;;;;;9.06;47.03;101296.93;1717527;81;21074;-64
2022/02/28 05:20:21;;;;;;;6.90;4.28;;;;;;;9.23;46.83;101296.11;1716830;83;21157;-65
2022/02/28 05:22:48;;;;;;;5.58;3.72;;;;;;;9.19;46.73;101296.88;1717632;81;21548;-67
2022/02/28 05:25:14;;;;;;;6.17;3.60;;;;;;;9.09;46.26;101290.11;1717333;83;20967;-63
2022/02/28 05:27:44;;;;;;;5.92;3.80;;;;;;;9.08;46.21;101288.48;1718429;81;21088;-72
2022/02/28 05:30:12;;;;;;;6.65;4.17;;;;;;;9.19;45.79;101286.97;1716002;83;21399;-65
2022/02/28 05:32:41;;;;;;;6.42;4.05;;;;;;;9.20;45.72;101282.91;1717671;81;21135;-64
2022/02/28 05:35:14;;;;;;;9.18;3.80;;;;;;;8.98;45.46;101284.18;1695666;82;20959;-64
2022/02/28 05:37:48;;;;;;;6.70;3.40;;;;;;;9.28;45.58;101285.25;1686169;81;21018;-66
2022/02/28 05:40:16;;;;;;;6.70;3.83;;;;;;;9.18;45.62;101276.23;1714463;81;21089;-64
2022/02/28 05:42:43;;;;;;;6.20;3.50;;;;;;;9.26;45.75;101284.92;1715375;81;21132;-64
2022/02/28 05:45:10;;;;;;;5.37;3.50;;;;;;;9.34;45.31;101279.45;1717889;81;21143;-64
2022/02/28 05:47:42;;;;;;;6.37;4.28;;;;;;;9.75;45.00;101272.29;1717714;81;20998;-63
2022/02/28 05:50:11;;;;;;;6.50;4.25;;;;;;;9.84;44.78;101277.06;1704336;82;21073;-72
2022/02/28 05:53:18;;;;;;;6.33;4.13;;;;;;;8.77;46.68;101275.34;1852273;76;22499;-63
2022/02/28 05:55:45;;;;;;;6.83;4.53;;;;;;;9.52;45.67;101279.45;1803519;78;21613;-63
2022/02/28 05:58:11;;;;;;;7.33;4.65;;;;;;;9.78;45.16;101275.09;1809548;77;21113;-64
2022/02/28 06:00:38;;;;;;;6.80;3.80;;;;;;;9.96;44.91;101279.77;1786464;79;20952;-65
2022/02/28 06:03:05;;;;;;;7.30;4.20;;;;;;;10.04;44.72;101278.15;1811859;78;21009;-64
2022/02/28 06:05:33;;;;;;;5.20;3.47;;;;;;;10.08;44.66;101280.80;1803242;78;21025;-63
2022/02/28 06:07:59;;;;;;;6.62;4.12;;;;;;;10.16;44.28;101280.35;1811134;78;21842;-64
2022/02/28 06:10:26;;;;;;;7.12;4.40;;;;;;;10.28;43.98;101263.98;1795977;77;22386;-66
2022/02/28 06:12:53;;;;;;;7.12;4.30;;;;;;;10.16;44.09;101274.33;1804982;77;21347;-63
2022/02/28 06:15:20;;;;;;;4.67;3.25;;;;;;;10.27;43.92;101272.79;1819369;77;20920;-65
2022/02/28 06:17:47;;;;;;;8.85;4.42;;;;;;;10.22;43.90;101277.11;1827385;77;22505;-65
2022/02/28 06:20:13;;;;;;;6.50;3.77;;;;;;;10.24;43.94;101271.77;1804334;77;21141;-63
2022/02/28 06:22:40;;;;;;;7.90;4.62;;;;;;;10.37;43.69;101272.66;1785992;77;22125;-65
2022/02/28 06:25:08;;;;;;;6.55;3.92;;;;;;;10.22;43.90;101277.60;1811958;77;21018;-66
2022/02/28 06:27:35;;;;;;;8.23;3.70;;;;;;;10.56;43.34;101263.27;1814051;77;20955;-70
2022/02/28 06:30:03;;;;;;;7.10;3.90;;;;;;;10.57;43.33;101266.23;1823609;77;20915;-63
2022/02/28 06:32:34;;;;;;;5.42;2.98;;;;;;;10.62;43.20;101267.86;1811063;77;20959;-60
2022/02/28 06:35:01;;;;;;;8.83;3.42;;;;;;;10.69;42.90;101263.66;1813850;77;21839;-62
2022/02/28 06:37:27;;;;;;;4.72;2.67;;;;;;;10.86;42.66;101269.71;1809925;77;22126;-62
2022/02/28 06:39:53;;;;;;;5.17;2.95;;;;;;;11.00;42.21;101259.15;1812893;77;20970;-69
2022/02/28 06:42:20;;;;;;;4.05;2.50;;;;;;;10.78;42.32;101266.27;1781270;77;21357;-63
2022/02/28 06:44:47;;;;;;;5.45;3.10;;;;;;;10.67;42.24;101269.99;1806656;77;21497;-69
2022/02/28 06:47:14;;;;;;;6.45;3.95;;;;;;;10.52;42.46;101271.58;1829794;77;21133;-64
2022/02/28 06:49:42;;;;;;;6.37;3.40;;;;;;;10.82;42.35;101271.01;1810916;79;21000;-68
2022/02/28 06:52:08;;;;;;;4.30;2.50;;;;;;;10.93;42.28;101277.23;1812517;77;21048;-64
2022/02/28 06:54:35;;;;;;;5.25;2.85;;;;;;;11.13;41.64;101273.02;1807374;77;20999;-64
2022/02/28 06:57:02;;;;;;;7.25;3.37;;;;;;;11.11;41.56;101265.36;1806464;77;20966;-68
2022/02/28 06:59:29;;;;;;;5.58;2.67;;;;;;;11.29;41.36;101263.07;1812513;77;21131;-63
2022/02/28 07:01:56;;;;;;;4.35;2.27;;;;;;;11.05;41.26;101263.87;1815870;77;21089;-66
2022/02/28 07:04:26;;;;;;;4.15;2.33;;;;;;;11.00;41.19;101264.86;1796460;77;21482;-67
2022/02/28 07:06:53;;;;;;;6.72;2.70;;;;;;;10.87;41.16;101267.91;1829590;77;21517;-63
2022/02/28 07:09:20;;;;;;;4.65;2.75;;;;;;;11.09;41.29;101269.09;1812662;77;21136;-65
2022/02/28 07:11:47;;;;;;;8.18;2.90;;;;;;;11.05;41.06;101271.70;1808288;77;21142;-66
2022/02/28 07:14:14;;;;;;;5.10;2.52;;;;;;;11.11;41.13;101268.46;1806221;77;22472;-65
2022/02/28 07:16:43;;;;;;;4.28;2.47;;;;;;;11.17;41.27;101274.32;1812749;77;20958;-61
2022/02/28 07:19:10;;;;;;;4.25;2.40;;;;;;;11.43;40.66;101267.15;1801079;77;21579;-62
2022/02/28 07:21:38;;;;;;;5.85;2.85;;;;;;;11.42;40.81;101268.14;1812294;77;21069;-65
2022/02/28 07:24:04;;;;;;;7.60;2.80;;;;;;;11.31;40.78;101263.24;1809371;77;22529;-60
2022/02/28 07:26:31;;;;;;;4.97;2.62;;;;;;;11.37;40.87;101266.52;1795202;77;22153;-61
2022/02/28 07:28:58;;;;;;;4.10;2.70;;;;;;;11.52;40.65;101265.38;1805592;77;21535;-59
2022/02/28 07:31:25;;;;;;;4.75;2.60;;;;;;;11.53;40.19;101255.25;1814209;77;21033;-59
2022/02/28 07:33:52;;;;;;;4.75;2.70;;;;;;;11.47;40.55;101262.91;1792972;77;21039;-63
2022/02/28 07:36:18;;;;;;;5.33;2.60;;;;;;;11.66;40.61;101258.66;1799981;77;22243;-62
2022/02/28 07:38:45;;;;;;;4.50;2.27;;;;;;;11.68;40.32;101255.40;1803214;77;21053;-63
2022/02/28 07:41:12;;;;;;;5.50;2.72;;;;;;;11.69;40.01;101250.48;1795490;77;20990;-64
2022/02/28 07:43:38;;;;;;;5.42;2.50;;;;;;;11.67;40.30;101252.47;1798801;77;21541;-65
2022/02/28 07:46:05;;;;;;;3.30;1.67;;;;;;;11.67;40.42;101251.16;1748118;80;21097;-62
2022/02/28 07:48:32;;;;;;;5.10;2.55;;;;;;;11.91;39.91;101250.32;1800370;77;21091;-74
2022/02/28 07:50:58;;;;;;;4.12;2.25;;;;;;;11.96;40.08;101258.95;1796566;77;22314;-63
2022/02/28 07:53:24;;;;;;;5.95;2.65;;;;;;;12.13;39.50;101251.41;1799404;77;21111;-63
2022/02/28 07:55:51;;;;;;;6.80;3.00;;;;;;;12.16;39.26;101252.38;1806808;77;21123;-64
2022/02/28 07:58:18;;;;;;;3.62;2.30;;;;;;;12.10;39.62;101251.73;1805445;77;21095;-68
2022/02/28 08:00:45;;;;;;;4.40;2.60;;;;;;;12.36;39.33;101250.98;1812583;77;21090;-73
2022/02/28 08:03:11;;;;;;;4.55;2.80;;;;;;;12.57;38.95;101248.26;1816268;77;20990;-62
2022/02/28 08:05:38;;;;;;;5.20;2.62;;;;;;;12.34;39.27;101243.79;1812010;77;22037;-68
2022/02/28 08:08:07;;;;;;;7.12;4.78;;;;;;;12.45;39.12;101248.33;1829452;77;20972;-62
2022/02/28 08:10:35;;;;;;;4.97;2.85;;;;;;;12.54;39.18;101243.36;1771284;79;21550;-66
2022/02/28 08:13:02;;;;;;;6.42;2.90;;;;;;;12.46;38.87;101245.53;1759321;80;21148;-75
2022/02/28 08:15:29;;;;;;;9.88;4.97;;;;;;;12.30;39.02;101242.50;1763373;80;21154;-64
2022/02/28 08:17:56;;;;;;;9.00;5.05;;;;;;;12.22;39.33;101239.92;1758438;80;21509;-65
2022/02/28 08:20:22;;;;;;;7.28;4.70;;;;;;;12.43;39.10;101242.47;1778962;79;21054;-73
2022/02/28 08:22:49;;;;;;;7.00;3.00;;;;;;;12.38;38.94;101243.77;1821047;77;21038;-62
2022/02/28 08:25:16;;;;;;;4.92;3.05;;;;;;;12.51;38.96;101248.96;1792794;77;21097;-67
2022/02/28 08:27:42;;;;;;;5.33;3.02;;;;;;;12.38;38.88;101252.11;1797070;77;21306;-64
2022/02/28 08:30:10;;;;;;;6.53;3.83;;;;;;;12.46;38.89;101252.56;1812561;77;21481;-63
2022/02/28 08:32:37;;;;;;;7.72;5.22;;;;;;;12.46;38.76;101248.14;1808452;77;21564;-67
2022/02/28 08:35:04;;;;;;;8.53;4.75;;;;;;;12.33;39.23;101253.13;1817811;77;20970;-67
2022/02/28 08:37:31;;;;;;;6.53;3.95;;;;;;;12.43;39.17;101251.63;1810980;77;22123;-65
2022/02/28 08:39:59;;;;;;;10.80;3.92;;;;;;;12.49;38.78;101236.53;1746140;80;21293;-66
2022/02/28 08:42:25;;;;;;;7.40;3.30;;;;;;;12.41;38.78;101238.20;1749386;80;21670;-64
2022/02/28 08:44:52;;;;;;;4.70;3.02;;;;;;;12.41;38.71;101243.43;1774131;79;21440;-65
2022/02/28 08:47:19;;;;;;;5.03;2.87;;;;;;;12.27;38.79;101243.33;1783268;79;21404;-73
2022/02/28 08:49:47;;;;;;;5.90;3.75;;;;;;;12.29;38.89;101238.27;1779295;79;21455;-68
2022/02/28 08:52:16;;;;;;;7.97;3.70;;;;;;;12.38;38.90;101245.08;1769954;79;21100;-66
2022/02/28 08:54:47;;;;;;;5.20;3.25;;;;;;;12.31;38.99;101244.16;1785075;78;21557;-67
2022/02/28 08:57:21;;;;;;;8.08;4.30;;;;;;;12.26;39.15;101245.13;1726267;78;21055;-65
2022/02/28 08:59:51;;;;;;;8.08;4.60;;;;;;;12.32;39.21;101243.66;1760884;80;21056;-62
2022/02/28 09:02:18;;;;;;;7.03;4.08;;;;;;;12.29;39.38;101246.11;1772261;78;21123;-67
2022/02/28 09:04:46;;;;;;;5.80;4.03;;;;;;;12.36;39.53;101245.75;1758256;80;21460;-65
2022/02/28 09:07:15;;;;;;;6.28;3.47;;;;;;;12.41;39.04;101245.23;1784131;78;20992;-66
2022/02/28 09:09:43;;;;;;;7.17;3.98;;;;;;;12.48;39.10;101247.98;1742198;78;21027;-65
2022/02/28 09:12:12;;;;;;;7.47;3.98;;;;;;;12.51;39.00;101246.34;1761732;79;21066;-68
2022/02/28 09:14:41;;;;;;;6.72;3.30;;;;;;;12.54;38.96;101248.13;1778501;78;21125;-64
2022/02/28 09:17:17;;;;;;;7.47;4.72;;;;;;;12.67;38.78;101248.87;1786980;78;20888;-69
2022/02/28 09:19:47;;;;;;;5.65;3.58;;;;;;;12.76;38.61;101241.78;1786152;78;21158;-64
2022/02/28 09:22:16;;;;;;;4.67;3.25;;;;;;;13.00;38.13;101236.39;1761890;78;21742;-70
2022/02/28 09:24:48;;;;;;;5.55;3.22;;;;;;;13.04;38.04;101235.05;1755331;80;21102;-64
2022/02/28 09:27:15;;;;;;;5.45;3.62;;;;;;;13.15;37.75;101239.06;1748176;80;21886;-65
2022/02/28 09:29:46;;;;;;;6.37;3.65;;;;;;;13.04;37.52;101238.17;1753094;80;21054;-64
2022/02/28 09:32:16;;;;;;;5.55;3.42;;;;;;;13.04;37.79;101239.48;1769891;79;22025;-65
2022/02/28 09:34:44;;;;;;;7.00;3.52;;;;;;;13.19;37.79;101236.91;1737544;80;20956;-65
2022/02/28 09:37:12;;;;;;;7.53;3.15;;;;;;;13.26;37.69;101236.06;1715003;81;21097;-65
2022/02/28 09:39:40;;;;;;;4.75;3.25;;;;;;;13.01;38.06;101243.75;1764347;80;21427;-66
2022/02/28 09:42:11;;;;;;;4.92;2.70;;;;;;;13.32;37.50;101238.45;1766312;80;20952;-67
2022/02/28 09:44:59;;;;;;;7.62;3.42;;;;;;;12.86;37.85;101234.03;1671351;84;21113;-66
2022/02/28 09:47:44;;;;;;;6.92;3.47;;;;;;;13.31;37.63;101232.91;1748611;80;20945;-68
2022/02/28 09:50:29;;;;;;;5.90;3.12;;;;;;;13.48;37.47;101233.06;1751293;81;21014;-65
2022/02/28 09:53:10;;;;;;;5.22;3.55;;;;;;;13.55;37.57;101226.13;1717961;79;21155;-69
2022/02/28 09:55:47;;;;;;;7.58;3.30;;;;;;;13.55;37.33;101220.88;1809991;77;21721;-70
2022/02/28 09:58:33;;;;;;;4.85;2.62;;;;;;;13.67;37.09;101219.95;1811073;77;21051;-71
2022/02/28 10:01:02;;;;;;;8.80;3.33;;;;;;;13.62;36.74;101221.80;1813846;77;21076;-66
2022/02/28 10:03:30;;;;;;;7.65;4.47;;;;;;;13.63;36.72;101214.75;1802501;77;21018;-69
2022/02/28 10:05:59;;;;;;;4.53;2.83;;;;;;;13.74;36.74;101214.31;1774520;77;21143;-69
2022/02/28 10:08:26;;;;;;;8.90;4.95;;;;;;;13.70;36.60;101213.05;1801448;77;21049;-68
2022/02/28 10:10:53;;;;;;;7.75;4.12;;;;;;;13.67;36.82;101208.16;1798972;77;21556;-69
2022/02/28 10:13:31;;;;;;;5.53;3.40;;;;;;;13.80;36.88;101207.05;1812874;77;21099;-69
2022/02/28 10:16:05;;;;;;;6.10;3.20;;;;;;;13.79;36.83;101202.81;1801390;77;21062;-67
2022/02/28 10:18:36;;;;;;;7.83;4.05;;;;;;;13.68;36.79;101209.80;1815785;77;21056;-69
2022/02/28 10:21:04;;;;;;;8.95;4.60;;;;;;;13.64;36.71;101201.99;1783497;77;21148;-71
2022/02/28 10:23:32;;;;;;;6.20;3.30;;;;;;;13.72;37.07;101197.97;1747651;79;20981;-64
2022/02/28 10:26:19;;;;;;;5.03;3.17;;;;;;;14.01;36.39;101194.50;1805683;77;21094;-67
2022/02/28 10:29:10;;;;;;;6.78;3.80;;;;;;;13.95;36.69;101197.88;1800420;77;21364;-68
2022/02/28 10:31:46;;;;;;;9.50;4.97;;;;;;;13.83;36.66;101200.64;1803572;77;21188;-64
2022/02/28 10:34:34;;;;;;;9.60;5.35;;;;;;;13.96;36.77;101190.81;1764178;77;20980;-65
2022/02/28 10:37:22;;;;;;;5.90;3.37;;;;;;;14.18;36.53;101195.13;1806285;79;20956;-64
2022/02/28 10:40:00;;;;;;;5.92;3.17;;;;;;;14.18;36.24;101196.95;1764072;79;21131;-72
2022/02/28 10:42:52;;;;;;;5.42;3.08;;;;;;;13.96;36.32;101197.38;1813014;77;21150;-67
2022/02/28 10:45:31;;;;;;;4.92;3.33;;;;;;;13.95;36.21;101196.56;1813794;77;21153;-71
2022/02/28 10:47:58;;;;;;;6.67;2.87;;;;;;;13.82;36.30;101195.06;1806891;77;21571;-65
2022/02/28 10:50:39;;;;;;;5.80;3.50;;;;;;;13.70;36.33;101197.32;1807116;77;21083;-66
2022/02/28 10:53:13;;;;;;;10.85;3.42;;;;;;;13.72;36.68;101191.92;1801046;77;21091;-67
2022/02/28 10:55:42;;;;;;;6.55;3.10;;;;;;;13.65;36.89;101189.20;1786474;79;21062;-65
2022/02/28 10:58:14;;;;;;;6.15;2.95;;;;;;;13.65;36.84;101189.70;1781743;79;22094;-69
2022/02/28 11:01:04;;;;;;;4.87;2.98;;;;;;;13.77;36.52;101190.38;1754338;79;21461;-67
2022/02/28 11:03:48;;;;;;;5.42;2.80;;;;;;;13.62;36.86;101196.10;1770917;79;22320;-67
2022/02/28 11:06:22;;;;;;;4.72;2.95;;;;;;;13.57;36.66;101191.91;1783425;79;21065;-65
2022/02/28 11:08:54;;;;;;;6.12;3.25;;;;;;;13.55;36.83;101189.45;1748275;79;21057;-65
2022/02/28 11:11:23;;;;;;;6.25;3.08;;;;;;;13.50;36.69;101183.14;1779492;79;22134;-66
2022/02/28 11:13:57;;;;;;;5.92;2.83;;;;;;;13.74;36.56;101185.48;1762099;79;20978;-65
2022/02/28 11:16:30;;;;;;;5.20;2.80;;;;;;;13.24;36.58;101180.93;1757424;79;21519;-69
2022/02/28 11:18:59;;;;;;;5.00;3.02;;;;;;;13.12;37.20;101182.63;1774698;79;21073;-66
2022/02/28 11:21:29;;;;;;;5.00;3.10;;;;;;;13.08;37.61;101181.36;1695399;83;21048;-67
2022/02/28 11:23:59;;;;;;;5.40;2.85;;;;;;;13.36;37.31;101178.19;1712350;81;21180;-68
2022/02/28 11:26:29;;;;;;;5.20;2.90;;;;;;;12.87;37.78;101178.08;1713045;81;21068;-67
2022/02/28 11:28:58;;;;;;;5.87;3.02;;;;;;;12.70;38.11;101177.89;1739218;81;21087;-65
2022/02/28 11:31:27;;;;;;;6.12;3.37;;;;;;;12.64;38.46;101181.20;1723751;81;21136;-65
2022/02/28 11:34:05;;;;;;;6.03;2.87;;;;;;;12.56;38.47;101182.56;1692413;81;21085;-67
2022/02/28 11:36:55;;;;;;;11.10;2.72;;;;;;;12.64;38.48;101183.31;1710829;81;22045;-64
2022/02/28 11:39:31;;;;;;;4.90;3.10;;;;;;;12.58;38.74;101184.02;1740425;81;21519;-66